sensor_id;sensor_type;location;lat;lon;timestamp;P1;durP1;ratioP1;P2;durP2;ratioP2
76475;SDS011;65308;50.078;14.854;2023-05-08T00:00:46;9.70;;;6.30;;
76475;SDS011;65308;50.078;14.854;2023-05-08T00:03:13;9.65;;;6.63;;
76475;SDS011;65308;50.078;14.854;2023-05-08T00:05:39;8.75;;;6.35;;
76475;SDS011;65308;50.078;14.854;2023-05-08T00:08:06;9.20;;;6.40;;
76475;SDS011;65308;50.078;14.854;2023-05-08T00:10:34;8.82;;;6.10;;
76475;SDS011;65308;50.078;14.854;2023-05-08T00:13:03;9.68;;;6.35;;
76475;SDS011;65308;50.078;14.854;2023-05-08T00:15:29;9.88;;;6.50;;
76475;SDS011;65308;50.078;14.854;2023-05-08T00:17:59;9.43;;;6.32;;
76475;SDS011;65308;50.078;14.854;2023-05-08T00:20:26;9.95;;;6.40;;
76475;SDS011;65308;50.078;14.854;2023-05-08T00:22:54;10.82;;;6.55;;
76475;SDS011;65308;50.078;14.854;2023-05-08T00:25:24;9.07;;;6.28;;
76475;SDS011;65308;50.078;14.854;2023-05-08T00:27:53;10.32;;;6.68;;
76475;SDS011;65308;50.078;14.854;2023-05-08T00:30:23;10.50;;;6.68;;
76475;SDS011;65308;50.078;14.854;2023-05-08T00:32:49;10.35;;;7.22;;
76475;SDS011;65308;50.078;14.854;2023-05-08T00:35:16;10.93;;;6.45;;
76475;SDS011;65308;50.078;14.854;2023-05-08T00:37:45;10.25;;;6.97;;
76475;SDS011;65308;50.078;14.854;2023-05-08T00:40:11;9.98;;;7.25;;
76475;SDS011;65308;50.078;14.854;2023-05-08T00:42:38;10.60;;;6.78;;
76475;SDS011;65308;50.078;14.854;2023-05-08T00:45:06;10.85;;;6.75;;
76475;SDS011;65308;50.078;14.854;2023-05-08T00:47:35;9.63;;;6.85;;
76475;SDS011;65308;50.078;14.854;2023-05-08T00:50:02;9.93;;;6.13;;
76475;SDS011;65308;50.078;14.854;2023-05-08T00:52:29;10.43;;;6.40;;
76475;SDS011;65308;50.078;14.854;2023-05-08T00:54:56;11.05;;;6.13;;
76475;SDS011;65308;50.078;14.854;2023-05-08T00:57:23;9.32;;;5.97;;
76475;SDS011;65308;50.078;14.854;2023-05-08T00:59:50;8.35;;;5.72;;
76475;SDS011;65308;50.078;14.854;2023-05-08T01:02:19;9.20;;;6.32;;
76475;SDS011;65308;50.078;14.854;2023-05-08T01:07:12;9.00;;;5.72;;
76475;SDS011;65308;50.078;14.854;2023-05-08T01:09:38;9.55;;;6.03;;
76475;SDS011;65308;50.078;14.854;2023-05-08T01:12:07;10.18;;;5.90;;
76475;SDS011;65308;50.078;14.854;2023-05-08T01:14:37;9.65;;;6.28;;
76475;SDS011;65308;50.078;14.854;2023-05-08T01:17:08;8.77;;;6.15;;
76475;SDS011;65308;50.078;14.854;2023-05-08T01:22:32;9.48;;;6.45;;
76475;SDS011;65308;50.078;14.854;2023-05-08T01:25:10;11.05;;;6.38;;
76475;SDS011;65308;50.078;14.854;2023-05-08T01:30:32;10.48;;;6.47;;
76475;SDS011;65308;50.078;14.854;2023-05-08T01:33:06;10.32;;;6.50;;
76475;SDS011;65308;50.078;14.854;2023-05-08T01:35:34;10.55;;;6.15;;
76475;SDS011;65308;50.078;14.854;2023-05-08T01:38:02;9.15;;;6.07;;
76475;SDS011;65308;50.078;14.854;2023-05-08T01:40:31;11.02;;;6.95;;
76475;SDS011;65308;50.078;14.854;2023-05-08T01:43:02;10.23;;;6.10;;
76475;SDS011;65308;50.078;14.854;2023-05-08T01:45:31;10.10;;;6.30;;
76475;SDS011;65308;50.078;14.854;2023-05-08T01:47:59;11.95;;;6.68;;
76475;SDS011;65308;50.078;14.854;2023-05-08T01:50:32;9.55;;;6.75;;
76475;SDS011;65308;50.078;14.854;2023-05-08T01:53:01;11.18;;;6.82;;
76475;SDS011;65308;50.078;14.854;2023-05-08T01:55:29;10.90;;;6.78;;
76475;SDS011;65308;50.078;14.854;2023-05-08T01:57:57;11.55;;;6.53;;
76475;SDS011;65308;50.078;14.854;2023-05-08T02:00:24;10.15;;;6.35;;
76475;SDS011;65308;50.078;14.854;2023-05-08T02:02:52;11.15;;;7.13;;
76475;SDS011;65308;50.078;14.854;2023-05-08T02:05:19;10.07;;;6.75;;
76475;SDS011;65308;50.078;14.854;2023-05-08T02:07:48;10.50;;;7.00;;
76475;SDS011;65308;50.078;14.854;2023-05-08T02:10:15;12.05;;;6.95;;
76475;SDS011;65308;50.078;14.854;2023-05-08T02:12:42;10.05;;;6.57;;
76475;SDS011;65308;50.078;14.854;2023-05-08T02:15:08;11.23;;;6.57;;
76475;SDS011;65308;50.078;14.854;2023-05-08T02:17:37;10.98;;;6.88;;
76475;SDS011;65308;50.078;14.854;2023-05-08T02:20:05;10.77;;;6.57;;
76475;SDS011;65308;50.078;14.854;2023-05-08T02:25:00;10.93;;;6.20;;
76475;SDS011;65308;50.078;14.854;2023-05-08T02:27:27;11.15;;;6.28;;
76475;SDS011;65308;50.078;14.854;2023-05-08T02:29:54;9.93;;;6.35;;
76475;SDS011;65308;50.078;14.854;2023-05-08T02:32:21;11.25;;;6.95;;
76475;SDS011;65308;50.078;14.854;2023-05-08T02:34:50;11.73;;;6.43;;
76475;SDS011;65308;50.078;14.854;2023-05-08T02:37:18;11.02;;;7.22;;
76475;SDS011;65308;50.078;14.854;2023-05-08T02:39:45;11.88;;;6.50;;
76475;SDS011;65308;50.078;14.854;2023-05-08T02:42:14;12.57;;;7.00;;
76475;SDS011;65308;50.078;14.854;2023-05-08T02:44:40;8.93;;;6.30;;
76475;SDS011;65308;50.078;14.854;2023-05-08T02:47:10;10.60;;;6.72;;
76475;SDS011;65308;50.078;14.854;2023-05-08T02:49:41;11.85;;;7.22;;
76475;SDS011;65308;50.078;14.854;2023-05-08T02:52:09;12.13;;;6.80;;
76475;SDS011;65308;50.078;14.854;2023-05-08T02:54:39;10.70;;;6.57;;
76475;SDS011;65308;50.078;14.854;2023-05-08T02:57:09;10.25;;;5.70;;
76475;SDS011;65308;50.078;14.854;2023-05-08T02:59:41;10.15;;;6.15;;
76475;SDS011;65308;50.078;14.854;2023-05-08T03:02:09;8.93;;;6.28;;
76475;SDS011;65308;50.078;14.854;2023-05-08T03:04:39;11.48;;;6.47;;
76475;SDS011;65308;50.078;14.854;2023-05-08T03:07:09;10.35;;;6.28;;
76475;SDS011;65308;50.078;14.854;2023-05-08T03:09:37;10.05;;;6.57;;
76475;SDS011;65308;50.078;14.854;2023-05-08T03:12:05;10.82;;;6.53;;
76475;SDS011;65308;50.078;14.854;2023-05-08T03:14:36;11.25;;;6.78;;
76475;SDS011;65308;50.078;14.854;2023-05-08T03:17:06;10.73;;;6.60;;
76475;SDS011;65308;50.078;14.854;2023-05-08T03:19:36;10.57;;;6.45;;
76475;SDS011;65308;50.078;14.854;2023-05-08T03:22:04;10.32;;;6.70;;
76475;SDS011;65308;50.078;14.854;2023-05-08T03:24:32;13.05;;;6.70;;
76475;SDS011;65308;50.078;14.854;2023-05-08T03:27:01;11.70;;;6.50;;
76475;SDS011;65308;50.078;14.854;2023-05-08T03:29:28;11.32;;;6.68;;
76475;SDS011;65308;50.078;14.854;2023-05-08T03:31:55;10.38;;;6.88;;
76475;SDS011;65308;50.078;14.854;2023-05-08T03:34:24;12.07;;;7.30;;
76475;SDS011;65308;50.078;14.854;2023-05-08T03:36:51;12.65;;;7.15;;
76475;SDS011;65308;50.078;14.854;2023-05-08T03:39:18;11.00;;;7.13;;
76475;SDS011;65308;50.078;14.854;2023-05-08T03:41:44;11.68;;;7.00;;
76475;SDS011;65308;50.078;14.854;2023-05-08T03:44:11;12.10;;;7.28;;
76475;SDS011;65308;50.078;14.854;2023-05-08T03:46:38;12.07;;;7.13;;
76475;SDS011;65308;50.078;14.854;2023-05-08T03:51:34;10.60;;;5.95;;
76475;SDS011;65308;50.078;14.854;2023-05-08T03:54:02;10.15;;;6.55;;
76475;SDS011;65308;50.078;14.854;2023-05-08T03:56:29;9.73;;;6.20;;
76475;SDS011;65308;50.078;14.854;2023-05-08T03:59:03;8.70;;;6.28;;
76475;SDS011;65308;50.078;14.854;2023-05-08T04:01:36;8.82;;;6.30;;
76475;SDS011;65308;50.078;14.854;2023-05-08T04:04:05;9.70;;;6.85;;
76475;SDS011;65308;50.078;14.854;2023-05-08T04:06:36;8.30;;;6.20;;
76475;SDS011;65308;50.078;14.854;2023-05-08T04:09:03;8.27;;;5.82;;
76475;SDS011;65308;50.078;14.854;2023-05-08T04:11:33;7.97;;;6.30;;
76475;SDS011;65308;50.078;14.854;2023-05-08T04:14:02;8.68;;;6.18;;
76475;SDS011;65308;50.078;14.854;2023-05-08T04:16:33;8.27;;;5.93;;
76475;SDS011;65308;50.078;14.854;2023-05-08T04:19:19;7.90;;;6.25;;
76475;SDS011;65308;50.078;14.854;2023-05-08T04:21:57;8.02;;;5.95;;
76475;SDS011;65308;50.078;14.854;2023-05-08T04:24:42;8.48;;;5.88;;
76475;SDS011;65308;50.078;14.854;2023-05-08T04:27:24;6.80;;;5.85;;
76475;SDS011;65308;50.078;14.854;2023-05-08T04:30:00;6.95;;;5.72;;
76475;SDS011;65308;50.078;14.854;2023-05-08T04:35:09;7.40;;;6.18;;
76475;SDS011;65308;50.078;14.854;2023-05-08T04:37:57;7.28;;;6.30;;
76475;SDS011;65308;50.078;14.854;2023-05-08T04:40:35;7.97;;;6.50;;
76475;SDS011;65308;50.078;14.854;2023-05-08T04:43:10;8.95;;;7.47;;
76475;SDS011;65308;50.078;14.854;2023-05-08T04:45:39;9.23;;;7.57;;
76475;SDS011;65308;50.078;14.854;2023-05-08T04:48:11;7.82;;;6.70;;
76475;SDS011;65308;50.078;14.854;2023-05-08T04:50:38;8.48;;;7.18;;
76475;SDS011;65308;50.078;14.854;2023-05-08T04:53:06;8.75;;;7.28;;
76475;SDS011;65308;50.078;14.854;2023-05-08T04:55:32;10.43;;;8.50;;
76475;SDS011;65308;50.078;14.854;2023-05-08T04:58:11;14.23;;;11.82;;
76475;SDS011;65308;50.078;14.854;2023-05-08T05:00:46;8.75;;;7.57;;
76475;SDS011;65308;50.078;14.854;2023-05-08T05:03:15;8.55;;;6.07;;
76475;SDS011;65308;50.078;14.854;2023-05-08T05:05:46;6.35;;;5.68;;
76475;SDS011;65308;50.078;14.854;2023-05-08T05:08:23;6.88;;;5.93;;
76475;SDS011;65308;50.078;14.854;2023-05-08T05:11:01;6.47;;;5.78;;
76475;SDS011;65308;50.078;14.854;2023-05-08T05:13:30;6.35;;;5.70;;
76475;SDS011;65308;50.078;14.854;2023-05-08T05:16:06;5.88;;;5.28;;
76475;SDS011;65308;50.078;14.854;2023-05-08T05:18:39;6.13;;;5.50;;
76475;SDS011;65308;50.078;14.854;2023-05-08T05:21:28;6.68;;;5.72;;
76475;SDS011;65308;50.078;14.854;2023-05-08T05:24:26;5.93;;;5.32;;
76475;SDS011;65308;50.078;14.854;2023-05-08T05:26:57;6.40;;;5.75;;
76475;SDS011;65308;50.078;14.854;2023-05-08T05:29:30;6.90;;;5.63;;
76475;SDS011;65308;50.078;14.854;2023-05-08T05:32:05;5.70;;;5.10;;
76475;SDS011;65308;50.078;14.854;2023-05-08T05:34:38;6.63;;;5.28;;
76475;SDS011;65308;50.078;14.854;2023-05-08T05:37:10;6.63;;;5.32;;
76475;SDS011;65308;50.078;14.854;2023-05-08T05:39:41;5.97;;;5.35;;
76475;SDS011;65308;50.078;14.854;2023-05-08T05:44:39;5.65;;;5.13;;
76475;SDS011;65308;50.078;14.854;2023-05-08T05:47:09;5.82;;;4.85;;
76475;SDS011;65308;50.078;14.854;2023-05-08T05:49:38;6.28;;;5.40;;
76475;SDS011;65308;50.078;14.854;2023-05-08T05:52:10;6.32;;;5.15;;
76475;SDS011;65308;50.078;14.854;2023-05-08T05:54:42;6.13;;;5.53;;
76475;SDS011;65308;50.078;14.854;2023-05-08T05:57:10;5.90;;;5.03;;
76475;SDS011;65308;50.078;14.854;2023-05-08T05:59:37;6.32;;;5.50;;
76475;SDS011;65308;50.078;14.854;2023-05-08T06:02:03;5.32;;;4.60;;
76475;SDS011;65308;50.078;14.854;2023-05-08T06:04:30;5.43;;;4.82;;
76475;SDS011;65308;50.078;14.854;2023-05-08T06:06:57;5.82;;;5.22;;
76475;SDS011;65308;50.078;14.854;2023-05-08T06:09:23;5.88;;;4.90;;
76475;SDS011;65308;50.078;14.854;2023-05-08T06:11:51;5.78;;;5.00;;
76475;SDS011;65308;50.078;14.854;2023-05-08T06:14:19;6.65;;;5.20;;
76475;SDS011;65308;50.078;14.854;2023-05-08T06:16:45;6.65;;;5.45;;
76475;SDS011;65308;50.078;14.854;2023-05-08T06:19:12;6.07;;;5.32;;
76475;SDS011;65308;50.078;14.854;2023-05-08T06:21:38;6.32;;;5.72;;
76475;SDS011;65308;50.078;14.854;2023-05-08T06:24:05;5.88;;;4.90;;
76475;SDS011;65308;50.078;14.854;2023-05-08T06:26:32;6.50;;;5.25;;
76475;SDS011;65308;50.078;14.854;2023-05-08T06:29:00;5.97;;;5.38;;
76475;SDS011;65308;50.078;14.854;2023-05-08T06:31:26;6.05;;;5.47;;
76475;SDS011;65308;50.078;14.854;2023-05-08T06:33:53;6.07;;;5.47;;
76475;SDS011;65308;50.078;14.854;2023-05-08T06:36:19;5.93;;;5.13;;
76475;SDS011;65308;50.078;14.854;2023-05-08T06:38:45;6.07;;;5.47;;
76475;SDS011;65308;50.078;14.854;2023-05-08T06:41:12;6.13;;;5.53;;
76475;SDS011;65308;50.078;14.854;2023-05-08T06:43:39;5.70;;;5.10;;
76475;SDS011;65308;50.078;14.854;2023-05-08T06:46:07;6.10;;;5.50;;
76475;SDS011;65308;50.078;14.854;2023-05-08T06:48:33;6.10;;;5.45;;
76475;SDS011;65308;50.078;14.854;2023-05-08T06:50:59;5.75;;;5.25;;
76475;SDS011;65308;50.078;14.854;2023-05-08T06:53:26;5.97;;;5.45;;
76475;SDS011;65308;50.078;14.854;2023-05-08T06:55:53;6.93;;;6.22;;
76475;SDS011;65308;50.078;14.854;2023-05-08T06:58:21;7.40;;;6.10;;
76475;SDS011;65308;50.078;14.854;2023-05-08T07:00:48;6.40;;;5.80;;
76475;SDS011;65308;50.078;14.854;2023-05-08T07:03:16;7.45;;;6.10;;
76475;SDS011;65308;50.078;14.854;2023-05-08T07:05:42;6.00;;;5.40;;
76475;SDS011;65308;50.078;14.854;2023-05-08T07:08:09;6.30;;;5.70;;
76475;SDS011;65308;50.078;14.854;2023-05-08T07:10:36;6.13;;;5.13;;
76475;SDS011;65308;50.078;14.854;2023-05-08T07:13:02;6.68;;;6.07;;
76475;SDS011;65308;50.078;14.854;2023-05-08T07:15:30;6.32;;;5.72;;
76475;SDS011;65308;50.078;14.854;2023-05-08T07:20:24;6.00;;;5.40;;
76475;SDS011;65308;50.078;14.854;2023-05-08T07:22:50;6.43;;;5.43;;
76475;SDS011;65308;50.078;14.854;2023-05-08T07:25:17;11.25;;;5.70;;
76475;SDS011;65308;50.078;14.854;2023-05-08T07:27:43;5.63;;;4.95;;
76475;SDS011;65308;50.078;14.854;2023-05-08T07:30:10;6.57;;;5.80;;
76475;SDS011;65308;50.078;14.854;2023-05-08T07:32:37;5.82;;;5.32;;
76475;SDS011;65308;50.078;14.854;2023-05-08T07:35:04;6.35;;;5.75;;
76475;SDS011;65308;50.078;14.854;2023-05-08T07:37:33;6.03;;;5.43;;
76475;SDS011;65308;50.078;14.854;2023-05-08T07:40:00;5.82;;;5.07;;
76475;SDS011;65308;50.078;14.854;2023-05-08T07:42:26;5.63;;;5.10;;
76475;SDS011;65308;50.078;14.854;2023-05-08T07:44:53;6.30;;;5.18;;
76475;SDS011;65308;50.078;14.854;2023-05-08T07:47:19;6.45;;;5.85;;
76475;SDS011;65308;50.078;14.854;2023-05-08T07:49:45;7.57;;;5.60;;
76475;SDS011;65308;50.078;14.854;2023-05-08T07:52:12;5.72;;;5.22;;
76475;SDS011;65308;50.078;14.854;2023-05-08T07:54:40;6.45;;;5.53;;
76475;SDS011;65308;50.078;14.854;2023-05-08T07:57:06;6.25;;;5.45;;
76475;SDS011;65308;50.078;14.854;2023-05-08T07:59:33;5.32;;;4.82;;
76475;SDS011;65308;50.078;14.854;2023-05-08T08:01:59;6.13;;;5.53;;
76475;SDS011;65308;50.078;14.854;2023-05-08T08:04:26;5.93;;;5.43;;
76475;SDS011;65308;50.078;14.854;2023-05-08T08:06:52;6.22;;;5.25;;
76475;SDS011;65308;50.078;14.854;2023-05-08T08:09:19;5.20;;;4.70;;
76475;SDS011;65308;50.078;14.854;2023-05-08T08:11:47;5.40;;;4.90;;
76475;SDS011;65308;50.078;14.854;2023-05-08T08:14:14;5.88;;;5.20;;
76475;SDS011;65308;50.078;14.854;2023-05-08T08:16:41;5.38;;;4.88;;
76475;SDS011;65308;50.078;14.854;2023-05-08T08:19:08;5.80;;;5.25;;
76475;SDS011;65308;50.078;14.854;2023-05-08T08:21:34;5.43;;;4.93;;
76475;SDS011;65308;50.078;14.854;2023-05-08T08:24:01;6.03;;;5.43;;
76475;SDS011;65308;50.078;14.854;2023-05-08T08:26:27;6.43;;;5.32;;
76475;SDS011;65308;50.078;14.854;2023-05-08T08:28:56;5.70;;;5.20;;
76475;SDS011;65308;50.078;14.854;2023-05-08T08:31:22;5.80;;;5.28;;
76475;SDS011;65308;50.078;14.854;2023-05-08T08:33:49;5.30;;;4.80;;
76475;SDS011;65308;50.078;14.854;2023-05-08T08:36:16;6.22;;;4.82;;
76475;SDS011;65308;50.078;14.854;2023-05-08T08:38:42;5.50;;;5.00;;
76475;SDS011;65308;50.078;14.854;2023-05-08T08:41:11;5.65;;;5.05;;
76475;SDS011;65308;50.078;14.854;2023-05-08T08:43:38;5.22;;;4.63;;
76475;SDS011;65308;50.078;14.854;2023-05-08T08:46:10;5.82;;;4.90;;
76475;SDS011;65308;50.078;14.854;2023-05-08T08:48:40;5.07;;;4.57;;
76475;SDS011;65308;50.078;14.854;2023-05-08T08:51:09;5.50;;;4.90;;
76475;SDS011;65308;50.078;14.854;2023-05-08T08:53:39;5.15;;;4.47;;
76475;SDS011;65308;50.078;14.854;2023-05-08T08:56:08;5.32;;;4.60;;
76475;SDS011;65308;50.078;14.854;2023-05-08T08:58:35;5.05;;;4.45;;
76475;SDS011;65308;50.078;14.854;2023-05-08T09:01:03;5.43;;;4.65;;
76475;SDS011;65308;50.078;14.854;2023-05-08T09:03:32;4.68;;;4.28;;
76475;SDS011;65308;50.078;14.854;2023-05-08T09:05:59;5.35;;;4.53;;
76475;SDS011;65308;50.078;14.854;2023-05-08T09:08:26;5.10;;;4.25;;
76475;SDS011;65308;50.078;14.854;2023-05-08T09:10:53;7.13;;;4.43;;
76475;SDS011;65308;50.078;14.854;2023-05-08T09:13:20;5.30;;;4.80;;
76475;SDS011;65308;50.078;14.854;2023-05-08T09:15:46;4.90;;;4.40;;
76475;SDS011;65308;50.078;14.854;2023-05-08T09:18:14;5.25;;;4.07;;
76475;SDS011;65308;50.078;14.854;2023-05-08T09:20:43;4.45;;;4.00;;
76475;SDS011;65308;50.078;14.854;2023-05-08T09:23:09;5.07;;;4.40;;
76475;SDS011;65308;50.078;14.854;2023-05-08T09:25:42;4.65;;;4.10;;
76475;SDS011;65308;50.078;14.854;2023-05-08T09:28:14;4.78;;;4.18;;
76475;SDS011;65308;50.078;14.854;2023-05-08T09:30:46;5.32;;;4.30;;
76475;SDS011;65308;50.078;14.854;2023-05-08T09:33:13;5.35;;;4.18;;
76475;SDS011;65308;50.078;14.854;2023-05-08T09:35:39;5.60;;;4.32;;
76475;SDS011;65308;50.078;14.854;2023-05-08T09:38:21;4.63;;;4.13;;
76475;SDS011;65308;50.078;14.854;2023-05-08T09:41:04;5.35;;;4.85;;
76475;SDS011;65308;50.078;14.854;2023-05-08T09:43:31;6.28;;;4.10;;
76475;SDS011;65308;50.078;14.854;2023-05-08T09:45:57;4.63;;;4.03;;
76475;SDS011;65308;50.078;14.854;2023-05-08T09:48:35;4.57;;;3.90;;
76475;SDS011;65308;50.078;14.854;2023-05-08T09:51:04;4.70;;;4.20;;
76475;SDS011;65308;50.078;14.854;2023-05-08T09:53:33;5.63;;;3.95;;
76475;SDS011;65308;50.078;14.854;2023-05-08T09:55:59;4.50;;;3.80;;
76475;SDS011;65308;50.078;14.854;2023-05-08T09:58:26;4.63;;;3.70;;
76475;SDS011;65308;50.078;14.854;2023-05-08T10:01:02;5.40;;;3.63;;
76475;SDS011;65308;50.078;14.854;2023-05-08T10:06:10;4.55;;;3.83;;
76475;SDS011;65308;50.078;14.854;2023-05-08T10:08:38;4.70;;;3.47;;
76475;SDS011;65308;50.078;14.854;2023-05-08T10:11:14;5.82;;;3.78;;
76475;SDS011;65308;50.078;14.854;2023-05-08T10:13:41;5.57;;;3.40;;
76475;SDS011;65308;50.078;14.854;2023-05-08T10:16:08;4.93;;;3.38;;
76475;SDS011;65308;50.078;14.854;2023-05-08T10:18:39;4.45;;;3.67;;
76475;SDS011;65308;50.078;14.854;2023-05-08T10:21:11;4.25;;;3.40;;
76475;SDS011;65308;50.078;14.854;2023-05-08T10:23:40;4.95;;;3.35;;
76475;SDS011;65308;50.078;14.854;2023-05-08T10:26:10;4.55;;;3.40;;
76475;SDS011;65308;50.078;14.854;2023-05-08T10:28:39;4.85;;;3.65;;
76475;SDS011;65308;50.078;14.854;2023-05-08T10:31:10;4.60;;;3.67;;
76475;SDS011;65308;50.078;14.854;2023-05-08T10:33:40;5.15;;;3.40;;
76475;SDS011;65308;50.078;14.854;2023-05-08T10:36:10;6.82;;;3.10;;
76475;SDS011;65308;50.078;14.854;2023-05-08T10:38:40;4.45;;;3.30;;
76475;SDS011;65308;50.078;14.854;2023-05-08T10:41:06;4.93;;;3.92;;
76475;SDS011;65308;50.078;14.854;2023-05-08T10:43:35;4.88;;;3.63;;
76475;SDS011;65308;50.078;14.854;2023-05-08T10:46:07;4.90;;;3.30;;
76475;SDS011;65308;50.078;14.854;2023-05-08T10:48:46;5.43;;;3.10;;
76475;SDS011;65308;50.078;14.854;2023-05-08T10:51:20;4.88;;;3.10;;
76475;SDS011;65308;50.078;14.854;2023-05-08T10:53:55;5.00;;;3.30;;
76475;SDS011;65308;50.078;14.854;2023-05-08T10:56:25;4.78;;;2.70;;
76475;SDS011;65308;50.078;14.854;2023-05-08T10:58:57;3.92;;;2.80;;
76475;SDS011;65308;50.078;14.854;2023-05-08T11:01:25;5.82;;;3.05;;
76475;SDS011;65308;50.078;14.854;2023-05-08T11:03:52;4.82;;;3.13;;
76475;SDS011;65308;50.078;14.854;2023-05-08T11:09:11;3.90;;;2.55;;
76475;SDS011;65308;50.078;14.854;2023-05-08T11:11:40;4.78;;;2.42;;
76475;SDS011;65308;50.078;14.854;2023-05-08T11:14:14;4.75;;;2.72;;
76475;SDS011;65308;50.078;14.854;2023-05-08T11:19:32;3.90;;;2.92;;
76475;SDS011;65308;50.078;14.854;2023-05-08T11:25:04;4.32;;;3.10;;
76475;SDS011;65308;50.078;14.854;2023-05-08T11:27:32;4.82;;;2.97;;
76475;SDS011;65308;50.078;14.854;2023-05-08T11:30:19;6.25;;;4.30;;
76475;SDS011;65308;50.078;14.854;2023-05-08T11:35:52;3.70;;;2.80;;
76475;SDS011;65308;50.078;14.854;2023-05-08T11:38:30;4.20;;;3.03;;
76475;SDS011;65308;50.078;14.854;2023-05-08T11:41:06;4.35;;;2.90;;
76475;SDS011;65308;50.078;14.854;2023-05-08T11:43:47;4.82;;;2.60;;
76475;SDS011;65308;50.078;14.854;2023-05-08T11:46:23;3.92;;;3.05;;
76475;SDS011;65308;50.078;14.854;2023-05-08T11:49:00;4.55;;;2.60;;
76475;SDS011;65308;50.078;14.854;2023-05-08T11:51:29;4.28;;;2.75;;
76475;SDS011;65308;50.078;14.854;2023-05-08T11:53:57;5.55;;;2.88;;
76475;SDS011;65308;50.078;14.854;2023-05-08T11:59:00;4.35;;;2.67;;
76475;SDS011;65308;50.078;14.854;2023-05-08T12:01:27;4.30;;;2.67;;
76475;SDS011;65308;50.078;14.854;2023-05-08T12:03:59;3.60;;;2.50;;
76475;SDS011;65308;50.078;14.854;2023-05-08T12:06:30;5.55;;;2.70;;
76475;SDS011;65308;50.078;14.854;2023-05-08T12:08:57;3.47;;;2.42;;
76475;SDS011;65308;50.078;14.854;2023-05-08T12:11:26;4.38;;;3.08;;
76475;SDS011;65308;50.078;14.854;2023-05-08T12:13:53;3.30;;;2.30;;
76475;SDS011;65308;50.078;14.854;2023-05-08T12:16:21;4.60;;;2.67;;
76475;SDS011;65308;50.078;14.854;2023-05-08T12:18:48;5.15;;;2.80;;
76475;SDS011;65308;50.078;14.854;2023-05-08T12:21:15;3.40;;;2.30;;
76475;SDS011;65308;50.078;14.854;2023-05-08T12:23:42;3.78;;;2.50;;
76475;SDS011;65308;50.078;14.854;2023-05-08T12:26:09;4.00;;;2.60;;
76475;SDS011;65308;50.078;14.854;2023-05-08T12:28:38;4.63;;;2.40;;
76475;SDS011;65308;50.078;14.854;2023-05-08T12:31:05;3.80;;;2.45;;
76475;SDS011;65308;50.078;14.854;2023-05-08T12:33:32;4.57;;;3.15;;
76475;SDS011;65308;50.078;14.854;2023-05-08T12:35:59;4.10;;;2.60;;
76475;SDS011;65308;50.078;14.854;2023-05-08T12:38:26;4.57;;;2.83;;
76475;SDS011;65308;50.078;14.854;2023-05-08T12:40:53;4.25;;;2.40;;
76475;SDS011;65308;50.078;14.854;2023-05-08T12:43:20;3.80;;;2.83;;
76475;SDS011;65308;50.078;14.854;2023-05-08T12:45:57;5.18;;;2.58;;
76475;SDS011;65308;50.078;14.854;2023-05-08T12:48:25;6.07;;;2.60;;
76475;SDS011;65308;50.078;14.854;2023-05-08T12:50:52;4.90;;;2.67;;
76475;SDS011;65308;50.078;14.854;2023-05-08T12:53:19;3.80;;;2.60;;
76475;SDS011;65308;50.078;14.854;2023-05-08T12:55:50;4.57;;;2.70;;
76475;SDS011;65308;50.078;14.854;2023-05-08T12:58:18;5.43;;;2.90;;
76475;SDS011;65308;50.078;14.854;2023-05-08T13:00:47;4.75;;;2.40;;
76475;SDS011;65308;50.078;14.854;2023-05-08T13:03:22;4.03;;;2.50;;
76475;SDS011;65308;50.078;14.854;2023-05-08T13:05:51;4.00;;;2.38;;
76475;SDS011;65308;50.078;14.854;2023-05-08T13:08:18;3.25;;;2.30;;
76475;SDS011;65308;50.078;14.854;2023-05-08T13:10:46;3.58;;;2.17;;
76475;SDS011;65308;50.078;14.854;2023-05-08T13:13:15;2.65;;;1.95;;
76475;SDS011;65308;50.078;14.854;2023-05-08T13:18:08;4.07;;;2.00;;
76475;SDS011;65308;50.078;14.854;2023-05-08T13:20:37;5.03;;;2.53;;
76475;SDS011;65308;50.078;14.854;2023-05-08T13:23:04;3.75;;;2.17;;
76475;SDS011;65308;50.078;14.854;2023-05-08T13:25:31;4.53;;;2.38;;
76475;SDS011;65308;50.078;14.854;2023-05-08T13:27:58;4.00;;;2.40;;
76475;SDS011;65308;50.078;14.854;2023-05-08T13:30:25;3.50;;;2.30;;
76475;SDS011;65308;50.078;14.854;2023-05-08T13:32:52;3.83;;;2.38;;
76475;SDS011;65308;50.078;14.854;2023-05-08T13:35:19;3.83;;;2.20;;
76475;SDS011;65308;50.078;14.854;2023-05-08T13:37:48;2.97;;;1.98;;
76475;SDS011;65308;50.078;14.854;2023-05-08T13:40:15;4.60;;;2.00;;
76475;SDS011;65308;50.078;14.854;2023-05-08T13:42:42;3.35;;;2.10;;
76475;SDS011;65308;50.078;14.854;2023-05-08T13:45:08;3.65;;;2.10;;
76475;SDS011;65308;50.078;14.854;2023-05-08T13:47:38;3.55;;;2.10;;
76475;SDS011;65308;50.078;14.854;2023-05-08T13:50:05;4.35;;;2.20;;
76475;SDS011;65308;50.078;14.854;2023-05-08T13:52:33;3.47;;;2.35;;
76475;SDS011;65308;50.078;14.854;2023-05-08T13:55:01;7.47;;;3.97;;
76475;SDS011;65308;50.078;14.854;2023-05-08T13:57:28;3.28;;;2.05;;
76475;SDS011;65308;50.078;14.854;2023-05-08T13:59:54;4.30;;;2.20;;
76475;SDS011;65308;50.078;14.854;2023-05-08T14:02:21;3.92;;;2.25;;
76475;SDS011;65308;50.078;14.854;2023-05-08T14:04:47;3.47;;;2.05;;
76475;SDS011;65308;50.078;14.854;2023-05-08T14:07:14;3.10;;;1.98;;
76475;SDS011;65308;50.078;14.854;2023-05-08T14:09:42;3.20;;;2.00;;
76475;SDS011;65308;50.078;14.854;2023-05-08T14:12:10;3.78;;;2.33;;
76475;SDS011;65308;50.078;14.854;2023-05-08T14:14:37;3.83;;;2.45;;
76475;SDS011;65308;50.078;14.854;2023-05-08T14:17:04;4.90;;;2.80;;
76475;SDS011;65308;50.078;14.854;2023-05-08T14:19:31;4.13;;;2.45;;
76475;SDS011;65308;50.078;14.854;2023-05-08T14:21:58;4.45;;;2.40;;
76475;SDS011;65308;50.078;14.854;2023-05-08T14:24:25;3.72;;;2.50;;
76475;SDS011;65308;50.078;14.854;2023-05-08T14:26:51;3.50;;;2.30;;
76475;SDS011;65308;50.078;14.854;2023-05-08T14:29:19;4.57;;;2.25;;
76475;SDS011;65308;50.078;14.854;2023-05-08T14:31:46;3.60;;;2.20;;
76475;SDS011;65308;50.078;14.854;2023-05-08T14:34:13;4.47;;;2.83;;
76475;SDS011;65308;50.078;14.854;2023-05-08T14:36:39;3.42;;;2.40;;
76475;SDS011;65308;50.078;14.854;2023-05-08T14:39:06;4.20;;;2.30;;
76475;SDS011;65308;50.078;14.854;2023-05-08T14:41:32;3.65;;;2.38;;
76475;SDS011;65308;50.078;14.854;2023-05-08T14:43:59;3.60;;;2.45;;
76475;SDS011;65308;50.078;14.854;2023-05-08T14:46:27;4.10;;;2.75;;
76475;SDS011;65308;50.078;14.854;2023-05-08T14:48:54;3.50;;;2.58;;
76475;SDS011;65308;50.078;14.854;2023-05-08T14:51:21;4.50;;;2.50;;
76475;SDS011;65308;50.078;14.854;2023-05-08T14:53:47;4.75;;;2.65;;
76475;SDS011;65308;50.078;14.854;2023-05-08T14:56:14;4.97;;;2.58;;
76475;SDS011;65308;50.078;14.854;2023-05-08T14:58:41;3.83;;;2.80;;
76475;SDS011;65308;50.078;14.854;2023-05-08T15:01:08;4.45;;;2.63;;
76475;SDS011;65308;50.078;14.854;2023-05-08T15:03:36;3.50;;;2.35;;
76475;SDS011;65308;50.078;14.854;2023-05-08T15:06:03;4.10;;;2.90;;
76475;SDS011;65308;50.078;14.854;2023-05-08T15:08:30;4.50;;;2.90;;
76475;SDS011;65308;50.078;14.854;2023-05-08T15:10:56;6.25;;;3.10;;
76475;SDS011;65308;50.078;14.854;2023-05-08T15:13:24;3.80;;;2.70;;
76475;SDS011;65308;50.078;14.854;2023-05-08T15:15:50;4.57;;;3.00;;
76475;SDS011;65308;50.078;14.854;2023-05-08T15:18:17;3.83;;;2.47;;
76475;SDS011;65308;50.078;14.854;2023-05-08T15:20:45;4.30;;;2.90;;